Terminal Aerodrome Forecast
Issued by NWS

Home | Current Version | Previous Version | Text Only | Print | Product List | Glossary On
Versions: 1 2 3 4 5 6 7 8 9 10 11 12 13 14 15 16 17 18 19 20 21 22
791
FTUS44 KSJT 291720
TAFSOA
TAF
KSOA 291720Z 2918/3018 18012KT P6SM BKN025
     FM291900 25008KT P6SM BKN050
     FM292100 31004KT P6SM BKN250=

USA.gov is the U.S. government's official web portal to all federal, state and local government web resources and services.